sensor_id;sensor_type;location;lat;lon;timestamp;P1;durP1;ratioP1;P2;durP2;ratioP2
44046;SDS011;29713;-33.888;151.150;2023-07-02T00:00:19;1.47;;;1.13;;
44046;SDS011;29713;-33.888;151.150;2023-07-02T00:02:47;1.73;;;1.10;;
44046;SDS011;29713;-33.888;151.150;2023-07-02T00:05:14;1.97;;;1.10;;
44046;SDS011;29713;-33.888;151.150;2023-07-02T00:07:43;1.80;;;1.10;;
44046;SDS011;29713;-33.888;151.150;2023-07-02T00:10:10;1.27;;;1.00;;
44046;SDS011;29713;-33.888;151.150;2023-07-02T00:12:37;0.90;;;0.90;;
44046;SDS011;29713;-33.888;151.150;2023-07-02T00:15:05;3.53;;;1.00;;
44046;SDS011;29713;-33.888;151.150;2023-07-02T00:17:33;2.20;;;1.00;;
44046;SDS011;29713;-33.888;151.150;2023-07-02T00:20:00;2.30;;;0.90;;
44046;SDS011;29713;-33.888;151.150;2023-07-02T00:22:34;1.00;;;0.90;;
44046;SDS011;29713;-33.888;151.150;2023-07-02T00:25:01;1.57;;;0.90;;
44046;SDS011;29713;-33.888;151.150;2023-07-02T00:27:29;2.70;;;0.93;;
44046;SDS011;29713;-33.888;151.150;2023-07-02T00:29:56;1.30;;;0.90;;
44046;SDS011;29713;-33.888;151.150;2023-07-02T00:32:23;1.20;;;0.80;;
44046;SDS011;29713;-33.888;151.150;2023-07-02T00:34:51;2.50;;;0.90;;
44046;SDS011;29713;-33.888;151.150;2023-07-02T00:37:18;2.43;;;1.07;;
44046;SDS011;29713;-33.888;151.150;2023-07-02T00:39:45;1.17;;;0.80;;
44046;SDS011;29713;-33.888;151.150;2023-07-02T00:42:14;2.33;;;0.77;;
44046;SDS011;29713;-33.888;151.150;2023-07-02T00:44:42;1.07;;;0.57;;
44046;SDS011;29713;-33.888;151.150;2023-07-02T00:47:12;0.97;;;0.80;;
44046;SDS011;29713;-33.888;151.150;2023-07-02T00:49:43;0.90;;;0.65;;
44046;SDS011;29713;-33.888;151.150;2023-07-02T00:52:10;2.42;;;0.70;;
44046;SDS011;29713;-33.888;151.150;2023-07-02T00:54:38;2.55;;;0.98;;
44046;SDS011;29713;-33.888;151.150;2023-07-02T00:57:06;2.03;;;0.88;;
44046;SDS011;29713;-33.888;151.150;2023-07-02T00:59:34;1.88;;;0.80;;
44046;SDS011;29713;-33.888;151.150;2023-07-02T01:02:06;1.45;;;0.73;;
44046;SDS011;29713;-33.888;151.150;2023-07-02T01:04:33;0.88;;;0.60;;
44046;SDS011;29713;-33.888;151.150;2023-07-02T01:07:02;2.03;;;0.70;;
44046;SDS011;29713;-33.888;151.150;2023-07-02T01:09:34;2.95;;;0.73;;
44046;SDS011;29713;-33.888;151.150;2023-07-02T01:12:02;1.90;;;0.80;;
44046;SDS011;29713;-33.888;151.150;2023-07-02T01:17:00;1.30;;;0.70;;
44046;SDS011;29713;-33.888;151.150;2023-07-02T01:22:19;1.10;;;0.55;;
44046;SDS011;29713;-33.888;151.150;2023-07-02T01:24:48;1.83;;;0.70;;
44046;SDS011;29713;-33.888;151.150;2023-07-02T01:27:16;1.80;;;0.75;;
44046;SDS011;29713;-33.888;151.150;2023-07-02T01:29:45;3.15;;;0.77;;
44046;SDS011;29713;-33.888;151.150;2023-07-02T01:32:13;3.38;;;0.55;;
44046;SDS011;29713;-33.888;151.150;2023-07-02T01:34:41;1.55;;;0.77;;
44046;SDS011;29713;-33.888;151.150;2023-07-02T01:37:17;3.30;;;0.80;;
44046;SDS011;29713;-33.888;151.150;2023-07-02T01:39:45;1.27;;;0.68;;
44046;SDS011;29713;-33.888;151.150;2023-07-02T01:42:16;3.60;;;1.00;;
44046;SDS011;29713;-33.888;151.150;2023-07-02T01:44:48;1.80;;;0.80;;
44046;SDS011;29713;-33.888;151.150;2023-07-02T01:47:16;1.13;;;0.50;;
44046;SDS011;29713;-33.888;151.150;2023-07-02T01:49:45;3.63;;;0.80;;
44046;SDS011;29713;-33.888;151.150;2023-07-02T01:52:12;5.30;;;1.10;;
44046;SDS011;29713;-33.888;151.150;2023-07-02T01:54:43;2.47;;;0.60;;
44046;SDS011;29713;-33.888;151.150;2023-07-02T01:57:11;1.58;;;0.68;;
44046;SDS011;29713;-33.888;151.150;2023-07-02T01:59:39;3.08;;;0.90;;
44046;SDS011;29713;-33.888;151.150;2023-07-02T02:02:06;3.35;;;1.10;;
44046;SDS011;29713;-33.888;151.150;2023-07-02T02:04:34;3.30;;;0.80;;
44046;SDS011;29713;-33.888;151.150;2023-07-02T02:07:01;2.72;;;0.57;;
44046;SDS011;29713;-33.888;151.150;2023-07-02T02:09:28;2.72;;;0.77;;
44046;SDS011;29713;-33.888;151.150;2023-07-02T02:11:57;3.40;;;0.90;;
44046;SDS011;29713;-33.888;151.150;2023-07-02T02:14:28;2.63;;;0.80;;
44046;SDS011;29713;-33.888;151.150;2023-07-02T02:16:55;3.00;;;0.80;;
44046;SDS011;29713;-33.888;151.150;2023-07-02T02:19:22;3.92;;;1.15;;
44046;SDS011;29713;-33.888;151.150;2023-07-02T02:21:50;3.55;;;1.02;;
44046;SDS011;29713;-33.888;151.150;2023-07-02T02:24:17;4.45;;;1.17;;
44046;SDS011;29713;-33.888;151.150;2023-07-02T02:26:44;2.92;;;0.90;;
44046;SDS011;29713;-33.888;151.150;2023-07-02T02:29:12;3.45;;;1.00;;
44046;SDS011;29713;-33.888;151.150;2023-07-02T02:31:39;4.15;;;0.93;;
44046;SDS011;29713;-33.888;151.150;2023-07-02T02:34:09;6.45;;;1.00;;
44046;SDS011;29713;-33.888;151.150;2023-07-02T02:36:38;2.70;;;1.15;;
44046;SDS011;29713;-33.888;151.150;2023-07-02T02:39:05;2.03;;;0.75;;
44046;SDS011;29713;-33.888;151.150;2023-07-02T02:41:33;5.60;;;1.10;;
44046;SDS011;29713;-33.888;151.150;2023-07-02T02:44:00;3.45;;;1.00;;
44046;SDS011;29713;-33.888;151.150;2023-07-02T02:46:28;3.42;;;0.90;;
44046;SDS011;29713;-33.888;151.150;2023-07-02T02:48:55;2.67;;;1.13;;
44046;SDS011;29713;-33.888;151.150;2023-07-02T02:51:23;1.60;;;0.80;;
44046;SDS011;29713;-33.888;151.150;2023-07-02T02:53:50;3.08;;;1.02;;
44046;SDS011;29713;-33.888;151.150;2023-07-02T02:56:17;2.60;;;1.15;;
44046;SDS011;29713;-33.888;151.150;2023-07-02T02:58:45;3.15;;;1.10;;
44046;SDS011;29713;-33.888;151.150;2023-07-02T03:01:12;4.10;;;1.33;;
44046;SDS011;29713;-33.888;151.150;2023-07-02T03:03:41;2.92;;;1.00;;
44046;SDS011;29713;-33.888;151.150;2023-07-02T03:06:11;4.45;;;1.20;;
44046;SDS011;29713;-33.888;151.150;2023-07-02T03:08:40;3.40;;;1.02;;
44046;SDS011;29713;-33.888;151.150;2023-07-02T03:11:07;5.05;;;1.05;;
44046;SDS011;29713;-33.888;151.150;2023-07-02T03:13:35;2.63;;;0.95;;
44046;SDS011;29713;-33.888;151.150;2023-07-02T03:16:02;3.00;;;1.10;;
44046;SDS011;29713;-33.888;151.150;2023-07-02T03:18:29;6.80;;;1.25;;
44046;SDS011;29713;-33.888;151.150;2023-07-02T03:20:58;5.68;;;1.25;;
44046;SDS011;29713;-33.888;151.150;2023-07-02T03:23:26;5.22;;;1.40;;
44046;SDS011;29713;-33.888;151.150;2023-07-02T03:25:53;4.28;;;1.02;;
44046;SDS011;29713;-33.888;151.150;2023-07-02T03:28:20;5.25;;;1.27;;
44046;SDS011;29713;-33.888;151.150;2023-07-02T03:30:48;2.50;;;0.95;;
44046;SDS011;29713;-33.888;151.150;2023-07-02T03:33:15;2.85;;;1.10;;
44046;SDS011;29713;-33.888;151.150;2023-07-02T03:35:42;1.98;;;1.00;;
44046;SDS011;29713;-33.888;151.150;2023-07-02T03:38:10;3.88;;;1.08;;
44046;SDS011;29713;-33.888;151.150;2023-07-02T03:40:37;3.40;;;0.95;;
44046;SDS011;29713;-33.888;151.150;2023-07-02T03:43:04;4.68;;;1.15;;
44046;SDS011;29713;-33.888;151.150;2023-07-02T03:45:31;2.83;;;1.08;;
44046;SDS011;29713;-33.888;151.150;2023-07-02T03:47:59;5.70;;;1.30;;
44046;SDS011;29713;-33.888;151.150;2023-07-02T03:50:26;4.15;;;1.40;;
44046;SDS011;29713;-33.888;151.150;2023-07-02T03:52:53;5.80;;;1.42;;
44046;SDS011;29713;-33.888;151.150;2023-07-02T03:55:21;5.28;;;1.30;;
44046;SDS011;29713;-33.888;151.150;2023-07-02T03:57:48;5.13;;;0.90;;
44046;SDS011;29713;-33.888;151.150;2023-07-02T04:00:15;6.55;;;1.27;;
44046;SDS011;29713;-33.888;151.150;2023-07-02T04:02:43;3.65;;;0.95;;
44046;SDS011;29713;-33.888;151.150;2023-07-02T04:05:10;3.80;;;1.00;;
44046;SDS011;29713;-33.888;151.150;2023-07-02T04:07:38;1.77;;;0.80;;
44046;SDS011;29713;-33.888;151.150;2023-07-02T04:10:05;5.60;;;1.40;;
44046;SDS011;29713;-33.888;151.150;2023-07-02T04:12:33;4.25;;;1.15;;
44046;SDS011;29713;-33.888;151.150;2023-07-02T04:15:01;2.40;;;0.80;;
44046;SDS011;29713;-33.888;151.150;2023-07-02T04:17:31;3.25;;;1.15;;
44046;SDS011;29713;-33.888;151.150;2023-07-02T04:19:59;3.72;;;1.00;;
44046;SDS011;29713;-33.888;151.150;2023-07-02T04:22:29;3.05;;;1.20;;
44046;SDS011;29713;-33.888;151.150;2023-07-02T04:24:56;3.90;;;0.90;;
44046;SDS011;29713;-33.888;151.150;2023-07-02T04:27:24;12.15;;;1.50;;
44046;SDS011;29713;-33.888;151.150;2023-07-02T04:29:53;3.75;;;1.08;;
44046;SDS011;29713;-33.888;151.150;2023-07-02T04:32:21;3.25;;;0.90;;
44046;SDS011;29713;-33.888;151.150;2023-07-02T04:34:48;2.63;;;1.15;;
44046;SDS011;29713;-33.888;151.150;2023-07-02T04:37:16;3.38;;;0.80;;
44046;SDS011;29713;-33.888;151.150;2023-07-02T04:39:47;2.85;;;0.93;;
44046;SDS011;29713;-33.888;151.150;2023-07-02T04:42:15;2.92;;;0.70;;
44046;SDS011;29713;-33.888;151.150;2023-07-02T04:44:42;5.40;;;1.10;;
44046;SDS011;29713;-33.888;151.150;2023-07-02T04:47:09;3.92;;;1.30;;
44046;SDS011;29713;-33.888;151.150;2023-07-02T04:49:37;4.30;;;1.10;;
44046;SDS011;29713;-33.888;151.150;2023-07-02T04:52:05;3.65;;;0.82;;
44046;SDS011;29713;-33.888;151.150;2023-07-02T04:54:33;2.80;;;1.05;;
44046;SDS011;29713;-33.888;151.150;2023-07-02T04:57:00;4.43;;;1.00;;
44046;SDS011;29713;-33.888;151.150;2023-07-02T04:59:27;5.25;;;1.13;;
44046;SDS011;29713;-33.888;151.150;2023-07-02T05:01:55;4.47;;;1.50;;
44046;SDS011;29713;-33.888;151.150;2023-07-02T05:04:22;6.60;;;1.30;;
44046;SDS011;29713;-33.888;151.150;2023-07-02T05:06:49;3.08;;;0.85;;
44046;SDS011;29713;-33.888;151.150;2023-07-02T05:09:17;4.03;;;1.10;;
44046;SDS011;29713;-33.888;151.150;2023-07-02T05:11:44;6.07;;;1.73;;
44046;SDS011;29713;-33.888;151.150;2023-07-02T05:14:11;4.45;;;1.00;;
44046;SDS011;29713;-33.888;151.150;2023-07-02T05:16:38;7.53;;;1.40;;
44046;SDS011;29713;-33.888;151.150;2023-07-02T05:19:06;6.93;;;1.58;;
44046;SDS011;29713;-33.888;151.150;2023-07-02T05:21:33;7.15;;;1.63;;
44046;SDS011;29713;-33.888;151.150;2023-07-02T05:24:00;5.93;;;1.10;;
44046;SDS011;29713;-33.888;151.150;2023-07-02T05:26:28;4.05;;;1.30;;
44046;SDS011;29713;-33.888;151.150;2023-07-02T05:28:55;5.13;;;1.30;;
44046;SDS011;29713;-33.888;151.150;2023-07-02T05:31:22;4.32;;;1.10;;
44046;SDS011;29713;-33.888;151.150;2023-07-02T05:33:50;4.32;;;1.30;;
44046;SDS011;29713;-33.888;151.150;2023-07-02T05:36:17;4.35;;;1.33;;
44046;SDS011;29713;-33.888;151.150;2023-07-02T05:38:46;6.43;;;1.60;;
44046;SDS011;29713;-33.888;151.150;2023-07-02T05:41:20;6.07;;;1.52;;
44046;SDS011;29713;-33.888;151.150;2023-07-02T05:43:47;4.40;;;1.40;;
44046;SDS011;29713;-33.888;151.150;2023-07-02T05:46:15;4.32;;;1.80;;
44046;SDS011;29713;-33.888;151.150;2023-07-02T05:48:42;3.70;;;1.20;;
44046;SDS011;29713;-33.888;151.150;2023-07-02T05:51:09;5.18;;;1.33;;
44046;SDS011;29713;-33.888;151.150;2023-07-02T05:53:37;4.43;;;1.42;;
44046;SDS011;29713;-33.888;151.150;2023-07-02T05:56:04;4.10;;;1.17;;
44046;SDS011;29713;-33.888;151.150;2023-07-02T05:58:35;6.07;;;1.33;;
44046;SDS011;29713;-33.888;151.150;2023-07-02T06:01:02;2.78;;;1.20;;
44046;SDS011;29713;-33.888;151.150;2023-07-02T06:03:30;6.15;;;1.83;;
44046;SDS011;29713;-33.888;151.150;2023-07-02T06:05:58;4.47;;;1.67;;
44046;SDS011;29713;-33.888;151.150;2023-07-02T06:08:25;7.35;;;1.70;;
44046;SDS011;29713;-33.888;151.150;2023-07-02T06:10:53;4.38;;;1.58;;
44046;SDS011;29713;-33.888;151.150;2023-07-02T06:13:23;5.15;;;1.70;;
44046;SDS011;29713;-33.888;151.150;2023-07-02T06:15:50;3.83;;;1.63;;
44046;SDS011;29713;-33.888;151.150;2023-07-02T06:18:18;3.58;;;1.80;;
44046;SDS011;29713;-33.888;151.150;2023-07-02T06:20:45;3.92;;;1.67;;
44046;SDS011;29713;-33.888;151.150;2023-07-02T06:23:13;4.03;;;1.50;;
44046;SDS011;29713;-33.888;151.150;2023-07-02T06:25:40;5.57;;;1.43;;
44046;SDS011;29713;-33.888;151.150;2023-07-02T06:28:07;7.13;;;1.50;;
44046;SDS011;29713;-33.888;151.150;2023-07-02T06:30:35;4.68;;;1.63;;
44046;SDS011;29713;-33.888;151.150;2023-07-02T06:33:03;4.73;;;1.90;;
44046;SDS011;29713;-33.888;151.150;2023-07-02T06:35:30;5.70;;;1.70;;
44046;SDS011;29713;-33.888;151.150;2023-07-02T06:37:57;8.60;;;4.57;;
44046;SDS011;29713;-33.888;151.150;2023-07-02T06:40:25;3.97;;;2.20;;
44046;SDS011;29713;-33.888;151.150;2023-07-02T06:42:52;9.27;;;3.23;;
44046;SDS011;29713;-33.888;151.150;2023-07-02T06:45:19;7.87;;;3.33;;
44046;SDS011;29713;-33.888;151.150;2023-07-02T06:47:47;7.40;;;3.03;;
44046;SDS011;29713;-33.888;151.150;2023-07-02T06:50:14;5.30;;;1.93;;
44046;SDS011;29713;-33.888;151.150;2023-07-02T06:52:41;9.53;;;2.23;;
44046;SDS011;29713;-33.888;151.150;2023-07-02T06:55:12;8.60;;;3.20;;
44046;SDS011;29713;-33.888;151.150;2023-07-02T06:57:43;5.20;;;2.50;;
44046;SDS011;29713;-33.888;151.150;2023-07-02T07:00:13;5.10;;;2.77;;
44046;SDS011;29713;-33.888;151.150;2023-07-02T07:02:41;6.03;;;2.47;;
44046;SDS011;29713;-33.888;151.150;2023-07-02T07:05:08;7.67;;;2.57;;
44046;SDS011;29713;-33.888;151.150;2023-07-02T07:07:36;4.33;;;2.30;;
44046;SDS011;29713;-33.888;151.150;2023-07-02T07:10:03;5.33;;;2.47;;
44046;SDS011;29713;-33.888;151.150;2023-07-02T07:12:31;4.20;;;2.40;;
44046;SDS011;29713;-33.888;151.150;2023-07-02T07:14:58;7.93;;;3.03;;
44046;SDS011;29713;-33.888;151.150;2023-07-02T07:17:26;6.00;;;2.90;;
44046;SDS011;29713;-33.888;151.150;2023-07-02T07:19:53;7.63;;;3.47;;
44046;SDS011;29713;-33.888;151.150;2023-07-02T07:22:20;7.17;;;3.73;;
44046;SDS011;29713;-33.888;151.150;2023-07-02T07:24:48;7.70;;;3.50;;
44046;SDS011;29713;-33.888;151.150;2023-07-02T07:27:15;6.00;;;3.70;;
44046;SDS011;29713;-33.888;151.150;2023-07-02T07:29:42;6.50;;;2.93;;
44046;SDS011;29713;-33.888;151.150;2023-07-02T07:32:10;6.30;;;3.10;;
44046;SDS011;29713;-33.888;151.150;2023-07-02T07:34:37;9.33;;;3.30;;
44046;SDS011;29713;-33.888;151.150;2023-07-02T07:37:04;4.67;;;2.70;;
44046;SDS011;29713;-33.888;151.150;2023-07-02T07:39:32;4.67;;;2.93;;
44046;SDS011;29713;-33.888;151.150;2023-07-02T07:42:02;7.33;;;3.70;;
44046;SDS011;29713;-33.888;151.150;2023-07-02T07:44:30;12.87;;;3.90;;
44046;SDS011;29713;-33.888;151.150;2023-07-02T07:46:57;5.77;;;3.20;;
44046;SDS011;29713;-33.888;151.150;2023-07-02T07:49:24;5.20;;;2.90;;
44046;SDS011;29713;-33.888;151.150;2023-07-02T07:51:52;6.70;;;3.50;;
44046;SDS011;29713;-33.888;151.150;2023-07-02T07:54:19;7.20;;;3.80;;
44046;SDS011;29713;-33.888;151.150;2023-07-02T07:56:46;10.17;;;3.67;;
44046;SDS011;29713;-33.888;151.150;2023-07-02T07:59:14;6.60;;;3.60;;
44046;SDS011;29713;-33.888;151.150;2023-07-02T08:01:41;6.63;;;3.77;;
44046;SDS011;29713;-33.888;151.150;2023-07-02T08:04:12;10.67;;;3.90;;
44046;SDS011;29713;-33.888;151.150;2023-07-02T08:06:39;7.47;;;3.63;;
44046;SDS011;29713;-33.888;151.150;2023-07-02T08:09:09;6.70;;;3.47;;
44046;SDS011;29713;-33.888;151.150;2023-07-02T08:11:36;8.20;;;3.53;;
44046;SDS011;29713;-33.888;151.150;2023-07-02T08:14:04;8.37;;;4.23;;
44046;SDS011;29713;-33.888;151.150;2023-07-02T08:16:31;11.20;;;4.40;;
44046;SDS011;29713;-33.888;151.150;2023-07-02T08:18:58;7.30;;;4.30;;
44046;SDS011;29713;-33.888;151.150;2023-07-02T08:21:26;8.13;;;4.17;;
44046;SDS011;29713;-33.888;151.150;2023-07-02T08:23:54;8.67;;;4.00;;
44046;SDS011;29713;-33.888;151.150;2023-07-02T08:26:23;7.50;;;4.10;;
44046;SDS011;29713;-33.888;151.150;2023-07-02T08:28:50;10.17;;;4.10;;
44046;SDS011;29713;-33.888;151.150;2023-07-02T08:31:17;8.60;;;4.13;;
44046;SDS011;29713;-33.888;151.150;2023-07-02T08:33:47;8.47;;;4.70;;
44046;SDS011;29713;-33.888;151.150;2023-07-02T08:36:15;9.70;;;4.20;;
44046;SDS011;29713;-33.888;151.150;2023-07-02T08:38:42;9.90;;;5.00;;
44046;SDS011;29713;-33.888;151.150;2023-07-02T08:41:09;10.10;;;5.03;;
44046;SDS011;29713;-33.888;151.150;2023-07-02T08:43:38;9.63;;;4.70;;
44046;SDS011;29713;-33.888;151.150;2023-07-02T08:46:06;7.87;;;4.47;;
44046;SDS011;29713;-33.888;151.150;2023-07-02T08:48:34;9.23;;;4.70;;
44046;SDS011;29713;-33.888;151.150;2023-07-02T08:51:02;9.07;;;4.53;;
44046;SDS011;29713;-33.888;151.150;2023-07-02T08:53:29;7.73;;;4.60;;
44046;SDS011;29713;-33.888;151.150;2023-07-02T08:55:59;12.40;;;4.70;;
44046;SDS011;29713;-33.888;151.150;2023-07-02T08:58:28;11.70;;;4.50;;
44046;SDS011;29713;-33.888;151.150;2023-07-02T09:03:33;8.93;;;4.40;;
44046;SDS011;29713;-33.888;151.150;2023-07-02T09:06:03;6.57;;;3.90;;
44046;SDS011;29713;-33.888;151.150;2023-07-02T09:08:35;7.20;;;3.87;;
44046;SDS011;29713;-33.888;151.150;2023-07-02T09:11:12;8.17;;;3.73;;
44046;SDS011;29713;-33.888;151.150;2023-07-02T09:13:49;6.37;;;3.30;;
44046;SDS011;29713;-33.888;151.150;2023-07-02T09:16:35;6.97;;;3.33;;
44046;SDS011;29713;-33.888;151.150;2023-07-02T09:19:05;7.40;;;3.37;;
44046;SDS011;29713;-33.888;151.150;2023-07-02T09:24:14;9.50;;;3.50;;
44046;SDS011;29713;-33.888;151.150;2023-07-02T09:27:14;8.27;;;3.97;;
44046;SDS011;29713;-33.888;151.150;2023-07-02T09:29:35;6.83;;;3.13;;
44046;SDS011;29713;-33.888;151.150;2023-07-02T09:32:05;8.53;;;2.90;;
44046;SDS011;29713;-33.888;151.150;2023-07-02T09:34:34;6.90;;;2.97;;
44046;SDS011;29713;-33.888;151.150;2023-07-02T09:37:02;8.60;;;3.23;;
44046;SDS011;29713;-33.888;151.150;2023-07-02T09:39:31;8.37;;;3.30;;
44046;SDS011;29713;-33.888;151.150;2023-07-02T09:42:05;7.80;;;3.13;;
44046;SDS011;29713;-33.888;151.150;2023-07-02T09:44:35;7.53;;;2.83;;
44046;SDS011;29713;-33.888;151.150;2023-07-02T09:47:03;10.57;;;3.20;;
44046;SDS011;29713;-33.888;151.150;2023-07-02T09:49:46;9.80;;;3.97;;
44046;SDS011;29713;-33.888;151.150;2023-07-02T09:52:21;7.73;;;4.47;;
44046;SDS011;29713;-33.888;151.150;2023-07-02T09:54:49;11.17;;;4.00;;
44046;SDS011;29713;-33.888;151.150;2023-07-02T09:57:16;11.07;;;4.00;;
44046;SDS011;29713;-33.888;151.150;2023-07-02T09:59:43;11.67;;;5.13;;
44046;SDS011;29713;-33.888;151.150;2023-07-02T10:02:12;11.33;;;5.17;;
44046;SDS011;29713;-33.888;151.150;2023-07-02T10:04:40;10.23;;;4.57;;
44046;SDS011;29713;-33.888;151.150;2023-07-02T10:07:10;9.53;;;4.53;;
44046;SDS011;29713;-33.888;151.150;2023-07-02T10:09:39;7.03;;;4.20;;
44046;SDS011;29713;-33.888;151.150;2023-07-02T10:12:19;12.80;;;4.43;;
44046;SDS011;29713;-33.888;151.150;2023-07-02T10:14:49;11.97;;;4.23;;
44046;SDS011;29713;-33.888;151.150;2023-07-02T10:17:30;11.67;;;4.30;;
44046;SDS011;29713;-33.888;151.150;2023-07-02T10:20:03;13.17;;;4.80;;
44046;SDS011;29713;-33.888;151.150;2023-07-02T10:22:42;13.87;;;4.30;;
44046;SDS011;29713;-33.888;151.150;2023-07-02T10:25:10;13.77;;;4.73;;
44046;SDS011;29713;-33.888;151.150;2023-07-02T10:27:39;15.67;;;5.60;;
44046;SDS011;29713;-33.888;151.150;2023-07-02T10:30:09;8.70;;;4.33;;
44046;SDS011;29713;-33.888;151.150;2023-07-02T10:32:37;8.70;;;4.03;;
44046;SDS011;29713;-33.888;151.150;2023-07-02T10:35:14;7.60;;;3.83;;
44046;SDS011;29713;-33.888;151.150;2023-07-02T10:37:42;8.73;;;4.23;;
44046;SDS011;29713;-33.888;151.150;2023-07-02T10:40:11;9.53;;;4.10;;
44046;SDS011;29713;-33.888;151.150;2023-07-02T10:42:45;9.30;;;4.60;;
44046;SDS011;29713;-33.888;151.150;2023-07-02T10:45:13;10.33;;;4.27;;
44046;SDS011;29713;-33.888;151.150;2023-07-02T10:47:40;13.00;;;4.50;;
44046;SDS011;29713;-33.888;151.150;2023-07-02T10:50:20;7.00;;;4.20;;
44046;SDS011;29713;-33.888;151.150;2023-07-02T10:52:49;9.27;;;4.47;;
44046;SDS011;29713;-33.888;151.150;2023-07-02T10:55:17;10.43;;;4.20;;
44046;SDS011;29713;-33.888;151.150;2023-07-02T10:57:45;10.60;;;4.90;;
44046;SDS011;29713;-33.888;151.150;2023-07-02T11:00:13;10.07;;;4.23;;
44046;SDS011;29713;-33.888;151.150;2023-07-02T11:02:41;9.53;;;4.37;;
44046;SDS011;29713;-33.888;151.150;2023-07-02T11:05:08;12.87;;;4.53;;
44046;SDS011;29713;-33.888;151.150;2023-07-02T11:07:43;8.73;;;4.47;;
44046;SDS011;29713;-33.888;151.150;2023-07-02T11:10:16;10.33;;;5.13;;
44046;SDS011;29713;-33.888;151.150;2023-07-02T11:12:44;9.73;;;4.70;;
44046;SDS011;29713;-33.888;151.150;2023-07-02T11:15:12;13.33;;;4.53;;
44046;SDS011;29713;-33.888;151.150;2023-07-02T11:17:41;10.80;;;4.57;;
44046;SDS011;29713;-33.888;151.150;2023-07-02T11:20:09;13.57;;;5.37;;
44046;SDS011;29713;-33.888;151.150;2023-07-02T11:22:38;11.40;;;4.47;;
44046;SDS011;29713;-33.888;151.150;2023-07-02T11:25:13;11.13;;;5.60;;
44046;SDS011;29713;-33.888;151.150;2023-07-02T11:27:45;11.80;;;5.93;;
44046;SDS011;29713;-33.888;151.150;2023-07-02T11:30:13;12.00;;;5.70;;
44046;SDS011;29713;-33.888;151.150;2023-07-02T11:32:50;10.23;;;5.30;;
44046;SDS011;29713;-33.888;151.150;2023-07-02T11:35:20;14.13;;;6.17;;
44046;SDS011;29713;-33.888;151.150;2023-07-02T11:37:48;12.57;;;6.20;;
44046;SDS011;29713;-33.888;151.150;2023-07-02T11:40:18;12.63;;;6.33;;
44046;SDS011;29713;-33.888;151.150;2023-07-02T11:42:46;12.47;;;5.97;;
44046;SDS011;29713;-33.888;151.150;2023-07-02T11:45:14;11.23;;;6.17;;
44046;SDS011;29713;-33.888;151.150;2023-07-02T11:47:41;13.50;;;6.03;;
44046;SDS011;29713;-33.888;151.150;2023-07-02T11:50:10;13.40;;;6.70;;
44046;SDS011;29713;-33.888;151.150;2023-07-02T11:52:37;12.60;;;6.53;;
44046;SDS011;29713;-33.888;151.150;2023-07-02T11:55:05;13.50;;;6.37;;
44046;SDS011;29713;-33.888;151.150;2023-07-02T11:57:33;17.57;;;6.63;;
44046;SDS011;29713;-33.888;151.150;2023-07-02T12:00:00;14.60;;;7.60;;
44046;SDS011;29713;-33.888;151.150;2023-07-02T12:02:28;15.23;;;7.23;;
44046;SDS011;29713;-33.888;151.150;2023-07-02T12:04:55;13.90;;;6.67;;
44046;SDS011;29713;-33.888;151.150;2023-07-02T12:07:22;12.43;;;6.77;;
44046;SDS011;29713;-33.888;151.150;2023-07-02T12:09:50;14.40;;;7.33;;
44046;SDS011;29713;-33.888;151.150;2023-07-02T12:12:18;13.53;;;7.13;;
44046;SDS011;29713;-33.888;151.150;2023-07-02T12:14:46;10.20;;;6.37;;
44046;SDS011;29713;-33.888;151.150;2023-07-02T12:17:13;11.33;;;6.50;;
44046;SDS011;29713;-33.888;151.150;2023-07-02T12:19:41;11.40;;;6.17;;
44046;SDS011;29713;-33.888;151.150;2023-07-02T12:22:08;12.90;;;6.83;;
44046;SDS011;29713;-33.888;151.150;2023-07-02T12:24:36;12.17;;;6.57;;
44046;SDS011;29713;-33.888;151.150;2023-07-02T12:27:03;10.40;;;6.60;;
44046;SDS011;29713;-33.888;151.150;2023-07-02T12:29:31;10.37;;;5.57;;
44046;SDS011;29713;-33.888;151.150;2023-07-02T12:31:58;11.57;;;6.20;;
44046;SDS011;29713;-33.888;151.150;2023-07-02T12:34:25;11.80;;;6.20;;
44046;SDS011;29713;-33.888;151.150;2023-07-02T12:36:54;9.83;;;5.60;;
44046;SDS011;29713;-33.888;151.150;2023-07-02T12:39:22;12.07;;;5.83;;
44046;SDS011;29713;-33.888;151.150;2023-07-02T12:41:52;11.93;;;6.10;;
44046;SDS011;29713;-33.888;151.150;2023-07-02T12:44:19;9.53;;;6.37;;
44046;SDS011;29713;-33.888;151.150;2023-07-02T12:46:47;13.30;;;6.27;;
44046;SDS011;29713;-33.888;151.150;2023-07-02T12:49:14;9.97;;;5.83;;
44046;SDS011;29713;-33.888;151.150;2023-07-02T12:51:41;11.87;;;5.87;;
44046;SDS011;29713;-33.888;151.150;2023-07-02T12:54:09;11.17;;;6.33;;
44046;SDS011;29713;-33.888;151.150;2023-07-02T12:56:36;11.80;;;6.20;;
44046;SDS011;29713;-33.888;151.150;2023-07-02T12:59:03;12.87;;;6.23;;
44046;SDS011;29713;-33.888;151.150;2023-07-02T13:01:31;12.90;;;6.30;;
44046;SDS011;29713;-33.888;151.150;2023-07-02T13:03:58;11.13;;;5.93;;
44046;SDS011;29713;-33.888;151.150;2023-07-02T13:06:27;8.03;;;5.50;;
44046;SDS011;29713;-33.888;151.150;2023-07-02T13:08:55;11.90;;;5.70;;
44046;SDS011;29713;-33.888;151.150;2023-07-02T13:11:22;10.80;;;5.70;;
44046;SDS011;29713;-33.888;151.150;2023-07-02T13:13:50;11.37;;;5.50;;
44046;SDS011;29713;-33.888;151.150;2023-07-02T13:16:17;11.80;;;5.83;;
44046;SDS011;29713;-33.888;151.150;2023-07-02T13:18:44;11.80;;;5.87;;
44046;SDS011;29713;-33.888;151.150;2023-07-02T13:21:12;8.20;;;4.90;;
44046;SDS011;29713;-33.888;151.150;2023-07-02T13:23:39;10.67;;;5.63;;
44046;SDS011;29713;-33.888;151.150;2023-07-02T13:26:06;11.23;;;5.13;;
44046;SDS011;29713;-33.888;151.150;2023-07-02T13:28:33;11.20;;;5.63;;
44046;SDS011;29713;-33.888;151.150;2023-07-02T13:31:01;10.90;;;5.67;;
44046;SDS011;29713;-33.888;151.150;2023-07-02T13:33:28;8.27;;;4.93;;
44046;SDS011;29713;-33.888;151.150;2023-07-02T13:35:58;10.73;;;5.37;;
44046;SDS011;29713;-33.888;151.150;2023-07-02T13:38:25;11.53;;;5.40;;
44046;SDS011;29713;-33.888;151.150;2023-07-02T13:40:53;11.50;;;5.47;;
44046;SDS011;29713;-33.888;151.150;2023-07-02T13:43:20;12.23;;;5.33;;
44046;SDS011;29713;-33.888;151.150;2023-07-02T13:45:47;10.40;;;5.07;;
44046;SDS011;29713;-33.888;151.150;2023-07-02T13:48:16;11.93;;;5.60;;
44046;SDS011;29713;-33.888;151.150;2023-07-02T13:50:43;9.73;;;5.00;;
44046;SDS011;29713;-33.888;151.150;2023-07-02T13:53:11;8.40;;;5.17;;
44046;SDS011;29713;-33.888;151.150;2023-07-02T13:55:39;9.33;;;5.47;;
44046;SDS011;29713;-33.888;151.150;2023-07-02T13:58:06;8.67;;;5.20;;
44046;SDS011;29713;-33.888;151.150;2023-07-02T14:00:34;10.67;;;5.70;;
44046;SDS011;29713;-33.888;151.150;2023-07-02T14:03:01;9.57;;;5.17;;
44046;SDS011;29713;-33.888;151.150;2023-07-02T14:05:29;9.50;;;4.73;;
44046;SDS011;29713;-33.888;151.150;2023-07-02T14:07:56;12.03;;;5.67;;
44046;SDS011;29713;-33.888;151.150;2023-07-02T14:10:23;10.83;;;4.80;;
44046;SDS011;29713;-33.888;151.150;2023-07-02T14:12:53;10.57;;;5.40;;
44046;SDS011;29713;-33.888;151.150;2023-07-02T14:15:21;9.03;;;4.53;;
44046;SDS011;29713;-33.888;151.150;2023-07-02T14:17:50;8.50;;;4.97;;
44046;SDS011;29713;-33.888;151.150;2023-07-02T14:20:17;12.13;;;5.80;;
44046;SDS011;29713;-33.888;151.150;2023-07-02T14:22:45;9.77;;;5.40;;